Time;durP1;ratioP1;P1;durP2;ratioP2;P2;SDS_P1;SDS_P2;PMS_P1;PMS_P2;Temp;Humidity;BMP_temperature;BMP_pressure;BME280_temperature;BME280_humidity;BME280_pressure;Samples;Min_cycle;Max_cycle;Signal;HPM_P1;HPM_P2
2023/11/24 00:00:51;;;;;;;54.40;51.65;;;;;;;;;;5020312;28;20218;-52
2023/11/24 00:03:16;;;;;;;51.75;49.05;;;;;;;;;;5021355;28;20527;-50
2023/11/24 00:05:42;;;;;;;52.65;49.97;;;;;;;;;;5020241;28;20029;-50
2023/11/24 00:08:08;;;;;;;50.97;48.38;;;;;;;;;;5021069;28;20056;-51
2023/11/24 00:10:34;;;;;;;51.92;49.28;;;;;;;;;;5022840;28;20047;-52
2023/11/24 00:13:00;;;;;;;51.75;49.13;;;;;;;;;;5028771;28;20034;-48
2023/11/24 00:15:26;;;;;;;50.28;47.67;;;;;;;;;;5023616;28;20813;-51
2023/11/24 00:17:51;;;;;;;54.22;51.50;;;;;;;;;;5024513;28;20054;-51
2023/11/24 00:20:16;;;;;;;55.85;53.05;;;;;;;;;;5027610;28;20021;-54
2023/11/24 00:22:42;;;;;;;57.22;54.30;;;;;;;;;;5024601;28;20144;-55
2023/11/24 00:25:09;;;;;;;59.25;56.28;;;;;;;;;;5025271;28;20041;-52
2023/11/24 00:27:35;;;;;;;56.88;54.00;;;;;;;;;;5028359;28;20315;-52
2023/11/24 00:30:01;;;;;;;56.35;53.50;;;;;;;;;;5025140;28;20037;-52
2023/11/24 00:32:27;;;;;;;57.47;54.58;;;;;;;;;;5025561;28;20147;-54
2023/11/24 00:34:52;;;;;;;54.35;51.63;;;;;;;;;;5025488;28;20046;-50
2023/11/24 00:37:17;;;;;;;54.40;51.63;;;;;;;;;;5021925;28;20363;-51
2023/11/24 00:39:44;;;;;;;51.33;48.72;;;;;;;;;;5025668;28;20790;-52
2023/11/24 00:42:10;;;;;;;51.75;49.13;;;;;;;;;;5023996;28;20029;-52
2023/11/24 00:44:35;;;;;;;55.65;52.85;;;;;;;;;;5023075;28;20094;-54
2023/11/24 00:47:01;;;;;;;54.05;51.25;;;;;;;;;;5021121;28;20110;-53
2023/11/24 00:49:26;;;;;;;56.22;53.40;;;;;;;;;;5025668;28;20033;-56
2023/11/24 00:51:51;;;;;;;57.53;54.65;;;;;;;;;;5024760;28;20033;-51
2023/11/24 00:54:17;;;;;;;56.17;53.35;;;;;;;;;;5022705;28;20451;-54
2023/11/24 00:56:42;;;;;;;55.72;52.88;;;;;;;;;;5024375;28;20056;-54
2023/11/24 00:59:07;;;;;;;56.35;53.50;;;;;;;;;;5026020;28;20088;-53
2023/11/24 01:01:33;;;;;;;55.05;52.28;;;;;;;;;;5024648;28;20040;-53
2023/11/24 01:03:58;;;;;;;55.17;52.40;;;;;;;;;;5023784;28;20136;-52
2023/11/24 01:06:24;;;;;;;55.05;52.28;;;;;;;;;;5028008;28;20033;-54
2023/11/24 01:08:49;;;;;;;54.92;52.17;;;;;;;;;;5024698;28;20064;-51
2023/11/24 01:11:15;;;;;;;56.85;54.00;;;;;;;;;;5029881;28;20430;-51
2023/11/24 01:13:40;;;;;;;56.58;53.72;;;;;;;;;;5023097;28;20357;-52
2023/11/24 01:16:06;;;;;;;57.15;54.25;;;;;;;;;;5020570;28;20145;-51
2023/11/24 01:18:33;;;;;;;55.13;52.33;;;;;;;;;;5020057;28;20038;-49
2023/11/24 01:20:59;;;;;;;57.78;54.88;;;;;;;;;;5020888;28;20021;-51
2023/11/24 01:23:26;;;;;;;53.70;51.00;;;;;;;;;;5023037;28;20447;-55
2023/11/24 01:25:53;;;;;;;54.83;52.08;;;;;;;;;;5026237;28;20033;-54
2023/11/24 01:28:18;;;;;;;54.78;52.03;;;;;;;;;;5027765;28;20072;-53
2023/11/24 01:30:44;;;;;;;56.28;53.45;;;;;;;;;;5025127;28;20037;-54
2023/11/24 01:33:09;;;;;;;53.17;50.47;;;;;;;;;;5024912;28;20518;-52
2023/11/24 01:35:35;;;;;;;54.17;51.45;;;;;;;;;;5025341;28;20029;-50
2023/11/24 01:38:00;;;;;;;56.05;53.22;;;;;;;;;;5023826;28;20044;-50
2023/11/24 01:40:26;;;;;;;50.55;48.00;;;;;;;;;;5023691;28;20408;-54
2023/11/24 01:42:51;;;;;;;53.55;50.72;;;;;;;;;;5028338;28;20049;-52
2023/11/24 01:45:17;;;;;;;56.38;53.53;;;;;;;;;;5023981;28;20053;-60
2023/11/24 01:47:42;;;;;;;54.03;51.30;;;;;;;;;;5026243;28;20209;-53
2023/11/24 01:50:09;;;;;;;51.00;48.40;;;;;;;;;;5024589;28;20036;-55
2023/11/24 01:52:35;;;;;;;54.95;52.20;;;;;;;;;;5026026;28;20030;-53
2023/11/24 01:55:04;;;;;;;53.95;51.22;;;;;;;;;;5024025;28;20033;-52
2023/11/24 01:57:31;;;;;;;51.92;49.28;;;;;;;;;;5024298;28;20034;-55
2023/11/24 01:59:57;;;;;;;52.25;49.60;;;;;;;;;;5022485;28;20120;-53
2023/11/24 02:02:23;;;;;;;50.60;47.90;;;;;;;;;;5022488;28;20040;-55
2023/11/24 02:04:48;;;;;;;50.25;47.72;;;;;;;;;;5025044;28;20158;-52
2023/11/24 02:07:14;;;;;;;46.67;44.33;;;;;;;;;;5023273;28;20034;-53
2023/11/24 02:09:41;;;;;;;50.35;47.85;;;;;;;;;;5023105;28;20533;-54
2023/11/24 02:12:07;;;;;;;42.90;40.70;;;;;;;;;;5020274;28;20077;-57
2023/11/24 02:14:32;;;;;;;38.95;36.85;;;;;;;;;;5023388;28;20034;-54
2023/11/24 02:16:59;;;;;;;40.35;38.00;;;;;;;;;;5022575;28;20397;-52
2023/11/24 02:19:28;;;;;;;39.03;37.03;;;;;;;;;;5024202;28;20069;-54
2023/11/24 02:21:53;;;;;;;42.38;40.22;;;;;;;;;;5021886;28;20514;-54
2023/11/24 02:24:19;;;;;;;38.50;36.50;;;;;;;;;;5024895;28;20102;-55
2023/11/24 02:26:44;;;;;;;37.88;35.97;;;;;;;;;;5026273;28;20064;-54
2023/11/24 02:29:10;;;;;;;38.42;36.47;;;;;;;;;;5023553;28;20305;-50
2023/11/24 02:31:35;;;;;;;38.63;36.38;;;;;;;;;;5020743;28;20029;-50
2023/11/24 02:34:01;;;;;;;39.70;37.70;;;;;;;;;;5023280;28;20026;-50
2023/11/24 02:36:30;;;;;;;37.70;35.80;;;;;;;;;;5023272;28;21057;-54
2023/11/24 02:38:58;;;;;;;37.85;35.92;;;;;;;;;;5011379;28;20128;-52
2023/11/24 02:41:25;;;;;;;38.30;36.10;;;;;;;;;;5012237;28;20059;-50
2023/11/24 02:43:51;;;;;;;34.83;33.03;;;;;;;;;;5023489;28;20156;-51
2023/11/24 02:46:16;;;;;;;35.47;33.60;;;;;;;;;;5025238;28;20037;-50
2023/11/24 02:48:43;;;;;;;36.63;34.72;;;;;;;;;;5021824;28;20217;-49
2023/11/24 02:51:09;;;;;;;34.05;31.88;;;;;;;;;;5023947;28;20030;-52
2023/11/24 02:53:39;;;;;;;31.52;29.90;;;;;;;;;;5024113;28;20098;-51
2023/11/24 02:56:05;;;;;;;30.42;28.83;;;;;;;;;;5024312;28;20557;-55
2023/11/24 02:58:31;;;;;;;31.25;29.63;;;;;;;;;;5025457;28;20757;-51
2023/11/24 03:00:57;;;;;;;30.80;29.20;;;;;;;;;;5025608;28;20489;-54
2023/11/24 03:03:23;;;;;;;29.35;27.75;;;;;;;;;;5025145;28;20124;-49
2023/11/24 03:05:52;;;;;;;30.92;29.25;;;;;;;;;;5024104;28;20029;-49
2023/11/24 03:08:19;;;;;;;29.60;28.00;;;;;;;;;;5022203;28;20495;-50
2023/11/24 03:10:45;;;;;;;29.13;27.63;;;;;;;;;;5023433;28;20069;-48
2023/11/24 03:13:10;;;;;;;29.38;27.77;;;;;;;;;;5022252;28;20485;-50
2023/11/24 03:15:35;;;;;;;32.80;31.00;;;;;;;;;;5024890;28;20041;-49
2023/11/24 03:18:01;;;;;;;32.35;29.40;;;;;;;;;;5023463;28;20451;-48
2023/11/24 03:20:27;;;;;;;30.08;28.48;;;;;;;;;;5026099;28;20471;-50
2023/11/24 03:22:52;;;;;;;29.60;28.02;;;;;;;;;;5019453;28;20021;-49
2023/11/24 03:25:18;;;;;;;29.65;27.58;;;;;;;;;;5025526;28;20385;-47
2023/11/24 03:27:43;;;;;;;29.73;28.17;;;;;;;;;;5022333;28;20040;-49
2023/11/24 03:30:09;;;;;;;28.40;26.85;;;;;;;;;;5023120;28;20040;-52
2023/11/24 03:32:34;;;;;;;31.30;28.98;;;;;;;;;;5022400;28;21113;-49
2023/11/24 03:35:00;;;;;;;29.73;28.13;;;;;;;;;;5024777;28;20037;-51
2023/11/24 03:37:25;;;;;;;29.05;27.55;;;;;;;;;;5022278;28;20363;-51
2023/11/24 03:39:51;;;;;;;30.08;28.48;;;;;;;;;;5021575;28;20098;-50
2023/11/24 03:42:16;;;;;;;29.40;27.80;;;;;;;;;;5023668;28;20117;-48
2023/11/24 03:44:42;;;;;;;30.30;28.23;;;;;;;;;;5027289;28;20033;-48
2023/11/24 03:47:07;;;;;;;30.48;28.70;;;;;;;;;;5029364;28;20038;-48
2023/11/24 03:49:32;;;;;;;27.30;25.90;;;;;;;;;;5025953;28;20040;-50
2023/11/24 03:51:59;;;;;;;29.40;27.88;;;;;;;;;;5026237;28;20034;-49
2023/11/24 03:54:25;;;;;;;28.55;26.95;;;;;;;;;;5028318;28;20178;-50
2023/11/24 03:56:50;;;;;;;31.85;29.73;;;;;;;;;;5030557;28;20179;-50
2023/11/24 03:59:15;;;;;;;29.75;28.13;;;;;;;;;;5027015;28;20038;-50
2023/11/24 04:01:41;;;;;;;29.85;27.88;;;;;;;;;;5025020;28;20120;-48
2023/11/24 04:04:06;;;;;;;31.02;29.42;;;;;;;;;;5025759;28;20029;-47
2023/11/24 04:06:32;;;;;;;30.55;28.95;;;;;;;;;;5020295;28;20049;-47
2023/11/24 04:08:57;;;;;;;30.02;28.42;;;;;;;;;;5027269;28;20156;-48
2023/11/24 04:11:23;;;;;;;30.77;28.95;;;;;;;;;;5025846;28;20072;-52
2023/11/24 04:13:48;;;;;;;28.33;26.83;;;;;;;;;;5025142;28;20037;-50
2023/11/24 04:16:14;;;;;;;27.92;26.40;;;;;;;;;;5025638;28;20053;-52
2023/11/24 04:18:40;;;;;;;30.77;29.17;;;;;;;;;;5025981;28;20042;-52
2023/11/24 04:21:06;;;;;;;28.02;26.45;;;;;;;;;;5023101;28;20049;-48
2023/11/24 04:23:31;;;;;;;26.50;25.10;;;;;;;;;;5026089;28;20025;-49
2023/11/24 04:25:57;;;;;;;30.40;28.35;;;;;;;;;;5026582;28;20036;-52
2023/11/24 04:28:22;;;;;;;28.05;26.55;;;;;;;;;;5028364;28;20091;-49
2023/11/24 04:30:48;;;;;;;27.52;26.02;;;;;;;;;;5022927;28;20355;-49
2023/11/24 04:33:13;;;;;;;27.67;26.13;;;;;;;;;;5028440;28;20052;-51
2023/11/24 04:35:38;;;;;;;26.55;25.15;;;;;;;;;;5022718;28;20065;-50
2023/11/24 04:38:04;;;;;;;28.20;26.70;;;;;;;;;;5026920;28;20299;-50
2023/11/24 04:40:29;;;;;;;25.17;23.88;;;;;;;;;;5027938;28;20056;-50
2023/11/24 04:42:55;;;;;;;26.75;25.35;;;;;;;;;;5024559;28;20026;-49
2023/11/24 04:45:20;;;;;;;25.90;24.50;;;;;;;;;;5024971;28;20045;-49
2023/11/24 04:47:45;;;;;;;25.58;24.27;;;;;;;;;;5024338;28;20047;-47
2023/11/24 04:50:11;;;;;;;29.63;27.98;;;;;;;;;;5026239;28;20094;-51
2023/11/24 04:52:36;;;;;;;29.58;27.60;;;;;;;;;;5024435;28;20098;-48
2023/11/24 04:55:03;;;;;;;27.05;25.65;;;;;;;;;;5023285;28;20033;-48
2023/11/24 04:57:31;;;;;;;26.52;25.05;;;;;;;;;;5025563;28;20489;-47
2023/11/24 04:59:56;;;;;;;24.52;23.23;;;;;;;;;;5022665;28;20029;-47
2023/11/24 05:02:22;;;;;;;27.77;26.27;;;;;;;;;;5023715;28;20101;-48
2023/11/24 05:04:47;;;;;;;27.80;26.30;;;;;;;;;;5026789;28;20329;-48
2023/11/24 05:07:17;;;;;;;28.58;26.83;;;;;;;;;;5022622;28;20038;-49
2023/11/24 05:09:43;;;;;;;27.00;25.60;;;;;;;;;;5027489;28;20033;-50
2023/11/24 05:12:08;;;;;;;27.40;26.00;;;;;;;;;;5025945;28;20483;-51
2023/11/24 05:14:34;;;;;;;27.83;26.35;;;;;;;;;;5025669;28;20356;-46
2023/11/24 05:17:00;;;;;;;27.15;25.73;;;;;;;;;;5025750;28;20068;-49
2023/11/24 05:19:25;;;;;;;28.15;26.65;;;;;;;;;;5024349;28;20396;-47
2023/11/24 05:21:50;;;;;;;27.15;25.75;;;;;;;;;;5021919;28;20041;-47
2023/11/24 05:24:16;;;;;;;28.98;27.42;;;;;;;;;;5026245;28;20029;-49
2023/11/24 05:26:41;;;;;;;26.95;25.55;;;;;;;;;;5023589;28;20049;-52
2023/11/24 05:29:07;;;;;;;28.02;26.20;;;;;;;;;;5024400;28;20026;-48
2023/11/24 05:31:32;;;;;;;28.27;26.77;;;;;;;;;;5023239;28;20356;-47
2023/11/24 05:33:59;;;;;;;25.17;23.77;;;;;;;;;;5029619;28;20476;-50
2023/11/24 05:36:26;;;;;;;26.42;24.92;;;;;;;;;;5021422;28;20037;-48
2023/11/24 05:38:52;;;;;;;25.13;23.83;;;;;;;;;;5023155;28;20032;-51
2023/11/24 05:41:17;;;;;;;27.20;25.80;;;;;;;;;;5022820;28;20458;-50
2023/11/24 05:43:43;;;;;;;27.73;26.23;;;;;;;;;;5026929;28;20029;-48
2023/11/24 05:46:09;;;;;;;26.67;25.25;;;;;;;;;;5024755;28;20147;-47
2023/11/24 05:48:34;;;;;;;25.30;24.00;;;;;;;;;;5038816;28;20044;-52
2023/11/24 05:51:00;;;;;;;26.25;24.85;;;;;;;;;;5021306;28;20029;-51
2023/11/24 05:53:25;;;;;;;26.48;25.08;;;;;;;;;;5021969;28;20604;-52
2023/11/24 05:55:52;;;;;;;28.13;26.60;;;;;;;;;;5026760;28;20041;-49
2023/11/24 05:58:18;;;;;;;25.88;24.48;;;;;;;;;;5028173;28;20664;-51
2023/11/24 06:00:43;;;;;;;29.85;27.98;;;;;;;;;;5021706;28;20136;-50
2023/11/24 06:03:10;;;;;;;27.88;26.38;;;;;;;;;;5023273;28;20042;-52
2023/11/24 06:05:36;;;;;;;26.73;25.33;;;;;;;;;;5020920;28;20565;-52
2023/11/24 06:08:04;;;;;;;28.98;26.52;;;;;;;;;;5025320;28;20087;-48
2023/11/24 06:10:30;;;;;;;26.85;25.38;;;;;;;;;;5027403;28;20040;-52
2023/11/24 06:12:56;;;;;;;27.65;26.23;;;;;;;;;;5032864;28;20463;-49
2023/11/24 06:15:22;;;;;;;27.25;25.13;;;;;;;;;;5022947;28;20386;-49
2023/11/24 06:17:48;;;;;;;29.73;27.70;;;;;;;;;;5024136;28;20141;-49
2023/11/24 06:20:14;;;;;;;27.52;26.08;;;;;;;;;;5023924;28;20110;-49
2023/11/24 06:22:39;;;;;;;27.92;26.45;;;;;;;;;;5023183;28;20038;-46
2023/11/24 06:25:05;;;;;;;28.38;26.88;;;;;;;;;;5026216;28;20091;-47
2023/11/24 06:27:31;;;;;;;27.23;25.83;;;;;;;;;;5022015;28;20056;-50
2023/11/24 06:29:56;;;;;;;30.95;29.17;;;;;;;;;;5022172;28;20040;-51
2023/11/24 06:32:22;;;;;;;29.63;28.02;;;;;;;;;;5023017;28;20099;-51
2023/11/24 06:34:47;;;;;;;28.85;27.20;;;;;;;;;;5024616;28;20468;-48
2023/11/24 06:37:13;;;;;;;28.70;27.15;;;;;;;;;;5019934;28;20045;-50
2023/11/24 06:39:38;;;;;;;27.38;25.77;;;;;;;;;;5025273;28;20036;-50
2023/11/24 06:42:04;;;;;;;28.63;27.02;;;;;;;;;;5024931;28;20033;-52
2023/11/24 06:44:30;;;;;;;29.35;27.73;;;;;;;;;;5022573;28;20120;-52
2023/11/24 06:46:55;;;;;;;31.75;29.92;;;;;;;;;;5025348;28;20037;-48
2023/11/24 06:49:29;;;;;;;28.85;26.65;;;;;;;;;;5028738;28;20120;-49
2023/11/24 06:51:55;;;;;;;27.80;25.90;;;;;;;;;;5024483;28;20061;-52
2023/11/24 06:54:21;;;;;;;27.92;26.38;;;;;;;;;;5027350;28;20067;-53
2023/11/24 06:56:46;;;;;;;25.60;24.23;;;;;;;;;;5027204;28;20099;-51
2023/11/24 06:59:12;;;;;;;29.70;28.10;;;;;;;;;;5025751;28;20030;-50
2023/11/24 07:01:38;;;;;;;31.63;29.90;;;;;;;;;;5028924;28;20033;-52
2023/11/24 07:04:04;;;;;;;29.20;27.60;;;;;;;;;;5027641;28;20116;-50
2023/11/24 07:06:30;;;;;;;30.42;28.63;;;;;;;;;;5022124;28;20104;-52
2023/11/24 07:08:56;;;;;;;30.50;28.70;;;;;;;;;;5027345;28;20037;-53
2023/11/24 07:11:22;;;;;;;26.83;25.40;;;;;;;;;;5027210;28;20030;-51
2023/11/24 07:13:49;;;;;;;26.40;25.00;;;;;;;;;;5024952;28;20324;-48
2023/11/24 07:16:16;;;;;;;28.23;26.48;;;;;;;;;;5024232;28;20040;-51
2023/11/24 07:18:41;;;;;;;27.15;25.58;;;;;;;;;;5031914;28;20030;-49
2023/11/24 07:21:07;;;;;;;26.48;24.88;;;;;;;;;;5029510;28;20051;-47
2023/11/24 07:23:37;;;;;;;25.42;24.08;;;;;;;;;;5028180;28;20045;-50
2023/11/24 07:26:07;;;;;;;28.60;26.30;;;;;;;;;;5030937;28;20067;-49
2023/11/24 07:28:34;;;;;;;27.95;26.27;;;;;;;;;;5026601;28;20041;-48
2023/11/24 07:30:59;;;;;;;26.20;24.73;;;;;;;;;;5029565;28;20161;-48
2023/11/24 07:33:27;;;;;;;26.33;24.88;;;;;;;;;;5026624;28;20278;-50
2023/11/24 07:35:54;;;;;;;26.45;25.05;;;;;;;;;;5026221;28;20360;-49
2023/11/24 07:38:20;;;;;;;29.20;27.58;;;;;;;;;;5025972;28;20030;-48
2023/11/24 07:40:45;;;;;;;29.52;27.92;;;;;;;;;;5022091;28;20103;-48
2023/11/24 07:43:10;;;;;;;33.00;31.20;;;;;;;;;;5025595;28;20025;-48
2023/11/24 07:45:36;;;;;;;28.02;26.23;;;;;;;;;;5022273;28;20055;-48
2023/11/24 07:48:01;;;;;;;28.38;26.88;;;;;;;;;;5024898;28;20025;-49
2023/11/24 07:50:27;;;;;;;27.65;25.95;;;;;;;;;;5026704;28;20049;-48
2023/11/24 07:52:52;;;;;;;26.95;25.55;;;;;;;;;;5026921;28;20030;-48
2023/11/24 07:55:17;;;;;;;25.33;23.92;;;;;;;;;;5026840;28;20029;-50
2023/11/24 07:57:43;;;;;;;29.48;27.88;;;;;;;;;;5027145;28;20136;-50
2023/11/24 08:00:12;;;;;;;28.35;26.85;;;;;;;;;;5024898;28;20128;-50
2023/11/24 08:02:38;;;;;;;28.45;26.75;;;;;;;;;;5027353;28;20108;-53
2023/11/24 08:05:04;;;;;;;29.85;28.25;;;;;;;;;;5024616;28;20033;-51
2023/11/24 08:07:29;;;;;;;28.92;27.02;;;;;;;;;;5028658;28;20044;-51
2023/11/24 08:09:55;;;;;;;27.65;26.20;;;;;;;;;;5027682;28;20046;-53
2023/11/24 08:12:20;;;;;;;28.00;26.50;;;;;;;;;;5026709;28;20127;-51
2023/11/24 08:14:46;;;;;;;25.95;24.45;;;;;;;;;;5027707;28;20060;-49
2023/11/24 08:17:11;;;;;;;26.92;25.13;;;;;;;;;;5025510;28;20034;-52
2023/11/24 08:19:37;;;;;;;29.00;27.23;;;;;;;;;;5028229;28;20555;-54
2023/11/24 08:22:04;;;;;;;27.38;25.70;;;;;;;;;;5025230;28;20034;-50
2023/11/24 08:24:30;;;;;;;29.23;27.63;;;;;;;;;;5025143;28;20051;-52
2023/11/24 08:26:55;;;;;;;27.58;26.10;;;;;;;;;;5026709;28;20116;-49
2023/11/24 08:29:21;;;;;;;27.88;26.38;;;;;;;;;;5025813;28;20048;-52
2023/11/24 08:31:48;;;;;;;28.52;27.00;;;;;;;;;;5028946;28;20102;-49
2023/11/24 08:34:15;;;;;;;28.27;26.65;;;;;;;;;;5024679;28;20337;-48
2023/11/24 08:36:41;;;;;;;28.08;26.58;;;;;;;;;;5025476;28;20052;-51
2023/11/24 08:39:13;;;;;;;28.45;26.95;;;;;;;;;;5026460;28;20044;-51
2023/11/24 08:41:47;;;;;;;26.08;24.67;;;;;;;;;;5023858;28;20691;-48
2023/11/24 08:44:13;;;;;;;27.00;25.50;;;;;;;;;;5021530;28;20025;-48
2023/11/24 08:46:39;;;;;;;26.98;25.58;;;;;;;;;;5023766;28;20047;-48
2023/11/24 08:49:05;;;;;;;27.65;26.23;;;;;;;;;;5026140;28;20170;-50
2023/11/24 08:51:31;;;;;;;28.58;26.95;;;;;;;;;;5025267;28;20337;-50
2023/11/24 08:53:58;;;;;;;30.17;28.58;;;;;;;;;;5026929;28;20526;-48
2023/11/24 08:56:24;;;;;;;27.17;25.67;;;;;;;;;;5023939;28;20040;-48
2023/11/24 08:58:50;;;;;;;29.00;26.92;;;;;;;;;;5024768;28;20828;-48
2023/11/24 09:01:15;;;;;;;27.95;26.10;;;;;;;;;;5024528;28;20439;-49
2023/11/24 09:03:41;;;;;;;26.48;25.08;;;;;;;;;;5028600;28;20537;-49
2023/11/24 09:06:06;;;;;;;26.63;25.05;;;;;;;;;;5024706;28;20115;-54
2023/11/24 09:08:32;;;;;;;26.83;25.35;;;;;;;;;;5024220;28;20475;-52
2023/11/24 09:10:57;;;;;;;25.58;24.25;;;;;;;;;;5025951;28;20033;-51
2023/11/24 09:13:22;;;;;;;26.23;24.83;;;;;;;;;;5023986;28;20120;-51
2023/11/24 09:15:49;;;;;;;27.63;26.13;;;;;;;;;;5024583;28;20566;-49
2023/11/24 09:18:15;;;;;;;29.63;27.90;;;;;;;;;;5025961;28;20029;-50
2023/11/24 09:20:40;;;;;;;27.23;25.73;;;;;;;;;;5027444;28;20034;-56
2023/11/24 09:23:05;;;;;;;26.17;24.67;;;;;;;;;;5023595;28;20065;-49
2023/11/24 09:25:32;;;;;;;29.27;27.58;;;;;;;;;;5023323;28;20056;-49
2023/11/24 09:27:58;;;;;;;28.02;26.50;;;;;;;;;;5026964;28;20060;-49
2023/11/24 09:30:24;;;;;;;27.50;26.00;;;;;;;;;;5024716;28;20075;-52
2023/11/24 09:32:50;;;;;;;28.90;27.30;;;;;;;;;;5029631;28;20592;-52
2023/11/24 09:35:15;;;;;;;31.00;29.40;;;;;;;;;;5023342;28;20120;-54
2023/11/24 09:37:41;;;;;;;28.75;27.17;;;;;;;;;;5025673;28;20065;-49
2023/11/24 09:40:13;;;;;;;29.52;28.00;;;;;;;;;;5024620;28;20112;-48
2023/11/24 09:42:42;;;;;;;31.40;29.80;;;;;;;;;;5024260;28;20811;-52
2023/11/24 09:45:14;;;;;;;30.23;28.63;;;;;;;;;;5026670;28;20037;-52
2023/11/24 09:47:43;;;;;;;30.77;29.13;;;;;;;;;;5023999;28;20076;-51
2023/11/24 09:50:12;;;;;;;29.55;27.95;;;;;;;;;;5020958;28;20470;-52
2023/11/24 09:52:42;;;;;;;28.42;26.92;;;;;;;;;;5026731;28;20040;-54
2023/11/24 09:55:08;;;;;;;26.67;25.27;;;;;;;;;;5023329;28;20422;-56
2023/11/24 09:57:33;;;;;;;26.98;25.58;;;;;;;;;;5022199;28;20041;-49
2023/11/24 09:59:59;;;;;;;27.15;25.75;;;;;;;;;;5020339;28;20041;-50
2023/11/24 10:02:26;;;;;;;29.90;28.20;;;;;;;;;;5023798;28;20466;-51
2023/11/24 10:04:52;;;;;;;27.95;26.35;;;;;;;;;;5022174;28;20038;-54
2023/11/24 10:07:21;;;;;;;27.10;25.60;;;;;;;;;;5026697;28;20041;-51
2023/11/24 10:09:48;;;;;;;26.65;25.25;;;;;;;;;;5022799;28;20111;-50
2023/11/24 10:12:15;;;;;;;28.95;27.45;;;;;;;;;;5026672;28;20045;-50
2023/11/24 10:14:43;;;;;;;28.13;26.63;;;;;;;;;;5022140;28;20368;-50
2023/11/24 10:17:09;;;;;;;27.30;25.65;;;;;;;;;;5028600;28;20069;-49
2023/11/24 10:19:38;;;;;;;25.73;24.33;;;;;;;;;;5026472;28;20076;-50
2023/11/24 10:22:03;;;;;;;27.20;25.80;;;;;;;;;;5023731;28;20528;-53
2023/11/24 10:24:34;;;;;;;26.70;25.30;;;;;;;;;;5027214;28;20371;-48
2023/11/24 10:27:19;;;;;;;26.98;25.58;;;;;;;;;;5024030;28;20546;-54
2023/11/24 10:29:46;;;;;;;27.48;25.92;;;;;;;;;;5022218;28;20029;-51
2023/11/24 10:32:11;;;;;;;27.40;25.80;;;;;;;;;;5019667;28;20034;-54
2023/11/24 10:34:36;;;;;;;26.80;25.40;;;;;;;;;;5022102;28;20463;-55
2023/11/24 10:37:05;;;;;;;28.55;27.05;;;;;;;;;;5026053;28;20029;-52
2023/11/24 10:39:32;;;;;;;30.13;28.52;;;;;;;;;;5025881;28;20111;-52
2023/11/24 10:41:59;;;;;;;28.70;27.20;;;;;;;;;;5024368;28;20455;-54
2023/11/24 10:44:25;;;;;;;28.90;27.38;;;;;;;;;;5026142;28;20051;-54
2023/11/24 10:46:53;;;;;;;28.63;27.13;;;;;;;;;;5023100;28;20026;-52
2023/11/24 10:49:34;;;;;;;26.90;25.50;;;;;;;;;;5021288;28;20125;-50
2023/11/24 10:52:00;;;;;;;29.30;27.48;;;;;;;;;;5023539;28;20034;-53
2023/11/24 10:54:34;;;;;;;28.50;26.83;;;;;;;;;;5028383;28;20125;-51
2023/11/24 10:57:00;;;;;;;26.58;25.02;;;;;;;;;;5029447;28;20080;-50
2023/11/24 10:59:34;;;;;;;26.85;25.45;;;;;;;;;;5019843;28;20041;-51
2023/11/24 11:02:05;;;;;;;26.63;25.23;;;;;;;;;;5028523;28;20034;-52
2023/11/24 11:04:30;;;;;;;;;;;;;;;;;;5022115;28;20037;-51
2023/11/24 11:07:18;;;;;;;28.10;26.60;;;;;;;;;;5020386;28;19953;-53
2023/11/24 11:09:51;;;;;;;28.83;27.05;;;;;;;;;;5015997;28;20054;-50
2023/11/24 11:12:40;;;;;;;29.02;27.52;;;;;;;;;;5022819;28;20407;-47
2023/11/24 11:15:09;;;;;;;28.65;27.15;;;;;;;;;;5023796;28;20044;-49
2023/11/24 11:17:35;;;;;;;26.55;25.15;;;;;;;;;;5024194;28;20328;-47
2023/11/24 11:20:06;;;;;;;25.13;23.83;;;;;;;;;;5022950;28;20033;-53
2023/11/24 11:22:39;;;;;;;26.55;25.15;;;;;;;;;;5024951;28;20044;-49
2023/11/24 11:25:17;;;;;;;29.20;27.67;;;;;;;;;;5020998;28;20033;-52
2023/11/24 11:27:45;;;;;;;26.85;25.45;;;;;;;;;;5022676;28;20105;-52
2023/11/24 11:30:22;;;;;;;26.30;24.73;;;;;;;;;;5021563;28;20051;-51
2023/11/24 11:33:14;;;;;;;28.55;27.05;;;;;;;;;;5023360;28;20169;-50
2023/11/24 11:35:44;;;;;;;27.63;26.13;;;;;;;;;;5018905;28;20518;-48
2023/11/24 11:38:13;;;;;;;27.08;25.38;;;;;;;;;;5024333;28;20111;-47
2023/11/24 11:40:43;;;;;;;24.15;22.85;;;;;;;;;;5020369;28;20514;-51
2023/11/24 11:43:10;;;;;;;24.77;23.38;;;;;;;;;;5023973;28;20641;-52
2023/11/24 11:45:49;;;;;;;27.58;25.98;;;;;;;;;;5023024;28;20059;-50
2023/11/24 11:48:15;;;;;;;25.55;24.17;;;;;;;;;;5026113;28;20037;-48
2023/11/24 11:50:58;;;;;;;26.33;24.92;;;;;;;;;;5019726;28;20029;-47
2023/11/24 11:53:34;;;;;;;26.38;24.80;;;;;;;;;;5027536;28;20030;-47
2023/11/24 11:56:01;;;;;;;25.80;24.40;;;;;;;;;;5022114;28;20076;-51
2023/11/24 11:58:29;;;;;;;25.52;24.23;;;;;;;;;;5028044;28;20057;-49
2023/11/24 12:00:54;;;;;;;26.77;25.38;;;;;;;;;;5020145;28;20040;-52
2023/11/24 12:03:22;;;;;;;25.20;23.90;;;;;;;;;;5021933;28;20033;-48
2023/11/24 12:05:48;;;;;;;24.70;23.40;;;;;;;;;;5023968;28;20100;-50
2023/11/24 12:08:22;;;;;;;23.90;22.60;;;;;;;;;;5028225;28;20036;-48
2023/11/24 12:10:47;;;;;;;25.83;24.42;;;;;;;;;;5025123;28;20095;-50
2023/11/24 12:13:13;;;;;;;25.88;24.48;;;;;;;;;;5026848;28;20037;-53
2023/11/24 12:15:39;;;;;;;25.67;24.27;;;;;;;;;;5025098;28;20029;-54
2023/11/24 12:18:07;;;;;;;25.70;24.30;;;;;;;;;;5027434;28;20051;-51
2023/11/24 12:20:36;;;;;;;26.33;24.92;;;;;;;;;;5026407;28;20064;-51
2023/11/24 12:23:04;;;;;;;25.13;23.83;;;;;;;;;;5026900;28;20036;-48
2023/11/24 12:25:32;;;;;;;24.52;23.23;;;;;;;;;;5026047;28;20042;-48
2023/11/24 12:28:09;;;;;;;24.85;23.55;;;;;;;;;;5022223;28;20030;-53
2023/11/24 12:30:40;;;;;;;25.75;24.40;;;;;;;;;;5026514;28;20033;-50
2023/11/24 12:33:14;;;;;;;25.58;24.23;;;;;;;;;;5030175;28;20544;-49
2023/11/24 12:35:48;;;;;;;26.02;24.63;;;;;;;;;;5024590;28;20052;-50
2023/11/24 12:38:17;;;;;;;27.30;25.80;;;;;;;;;;5027621;28;20039;-52
2023/11/24 12:40:44;;;;;;;23.17;21.98;;;;;;;;;;5027123;28;20044;-50
2023/11/24 12:43:17;;;;;;;27.17;25.77;;;;;;;;;;5027656;28;20066;-51
2023/11/24 12:45:43;;;;;;;25.92;24.52;;;;;;;;;;5022759;28;20033;-53
2023/11/24 12:48:21;;;;;;;27.52;26.05;;;;;;;;;;5022967;28;20119;-51
2023/11/24 12:50:47;;;;;;;26.17;24.77;;;;;;;;;;5023183;28;20052;-53
2023/11/24 12:53:14;;;;;;;26.33;24.92;;;;;;;;;;5028873;28;20133;-50
2023/11/24 12:55:41;;;;;;;26.25;24.85;;;;;;;;;;5027376;28;20041;-49
2023/11/24 12:58:07;;;;;;;27.23;25.83;;;;;;;;;;5027369;28;20087;-53
2023/11/24 13:00:32;;;;;;;26.33;24.92;;;;;;;;;;5024226;28;20045;-53
2023/11/24 13:02:58;;;;;;;26.67;25.27;;;;;;;;;;5029296;28;20096;-49
2023/11/24 13:05:25;;;;;;;28.33;26.83;;;;;;;;;;5021427;28;20034;-49
2023/11/24 13:07:52;;;;;;;27.48;25.98;;;;;;;;;;5022380;28;20032;-50
2023/11/24 13:10:18;;;;;;;26.98;25.58;;;;;;;;;;5026674;28;20061;-50
2023/11/24 13:12:44;;;;;;;28.73;26.95;;;;;;;;;;5023817;28;20497;-49
2023/11/24 13:15:10;;;;;;;26.23;24.83;;;;;;;;;;5016913;28;20057;-53
2023/11/24 13:17:36;;;;;;;26.30;24.90;;;;;;;;;;5023610;28;20068;-51
2023/11/24 13:20:03;;;;;;;27.10;25.70;;;;;;;;;;5023990;28;20120;-53
2023/11/24 13:22:31;;;;;;;26.92;25.50;;;;;;;;;;5027605;28;20459;-54
2023/11/24 13:24:58;;;;;;;27.85;26.40;;;;;;;;;;5019361;28;20040;-53
2023/11/24 13:27:24;;;;;;;30.35;28.75;;;;;;;;;;5026126;28;20037;-53
2023/11/24 13:29:49;;;;;;;29.90;28.35;;;;;;;;;;5022587;28;20069;-50
2023/11/24 13:32:15;;;;;;;30.25;28.67;;;;;;;;;;5021624;28;20104;-50
2023/11/24 13:34:40;;;;;;;30.33;28.75;;;;;;;;;;5023184;28;20038;-50
2023/11/24 13:37:10;;;;;;;28.50;26.98;;;;;;;;;;5022904;28;20038;-53
2023/11/24 13:39:36;;;;;;;30.57;28.97;;;;;;;;;;5026108;28;20483;-49
2023/11/24 13:42:03;;;;;;;31.05;29.45;;;;;;;;;;5024233;28;20271;-53
2023/11/24 13:44:29;;;;;;;30.95;29.25;;;;;;;;;;5018629;28;20033;-51
2023/11/24 13:46:56;;;;;;;28.17;26.67;;;;;;;;;;5021511;28;20041;-48
2023/11/24 13:49:22;;;;;;;28.85;27.35;;;;;;;;;;5024414;28;20032;-48
2023/11/24 13:51:47;;;;;;;29.15;27.65;;;;;;;;;;5023551;28;20374;-47
2023/11/24 13:54:14;;;;;;;27.45;25.95;;;;;;;;;;5022552;28;20037;-48
2023/11/24 13:56:40;;;;;;;29.33;27.67;;;;;;;;;;5024016;28;20187;-51
2023/11/24 13:59:13;;;;;;;26.35;24.95;;;;;;;;;;5025390;28;20083;-49
2023/11/24 14:01:43;;;;;;;28.20;26.70;;;;;;;;;;5027037;28;20455;-47
2023/11/24 14:04:10;;;;;;;27.52;25.35;;;;;;;;;;5024934;28;20029;-51
2023/11/24 14:06:43;;;;;;;27.27;25.88;;;;;;;;;;5027064;28;20033;-47
2023/11/24 14:09:17;;;;;;;26.48;25.08;;;;;;;;;;5021995;28;20038;-50
2023/11/24 14:11:52;;;;;;;26.67;25.27;;;;;;;;;;5026496;28;20029;-55
2023/11/24 14:14:21;;;;;;;30.35;28.65;;;;;;;;;;5025302;28;20109;-49
2023/11/24 14:16:47;;;;;;;26.73;25.33;;;;;;;;;;5026944;28;20044;-50